Time;durP1;ratioP1;P1;durP2;ratioP2;P2;SDS_P1;SDS_P2;PMS_P1;PMS_P2;Temp;Humidity;BMP_temperature;BMP_pressure;BME280_temperature;BME280_humidity;BME280_pressure;Samples;Min_cycle;Max_cycle;Signal;HPM_P1;HPM_P2
2021/12/10 00:01:11;;;;;;;42.67;25.92;;;;;;;1.19;100.00;99642.44;5124280;27;20023;-68
2021/12/10 00:03:40;;;;;;;42.45;25.48;;;;;;;1.22;100.00;99645.13;5123132;27;20489;-71
2021/12/10 00:06:19;;;;;;;46.15;27.50;;;;;;;1.30;100.00;99638.38;5124998;27;20028;-69
2021/12/10 00:08:48;;;;;;;41.85;25.35;;;;;;;1.37;100.00;99634.19;5118320;27;20243;-70
2021/12/10 00:11:20;;;;;;;40.80;24.13;;;;;;;1.46;100.00;99623.09;5117999;27;20023;-70
2021/12/10 00:13:47;;;;;;;41.33;24.00;;;;;;;1.48;100.00;99614.44;5118572;27;20028;-69
2021/12/10 00:16:16;;;;;;;40.33;22.52;;;;;;;1.50;100.00;99606.66;5098854;28;20016;-68
2021/12/10 00:18:48;;;;;;;39.42;22.98;;;;;;;1.55;100.00;99595.50;5125426;27;20140;-70
2021/12/10 00:21:14;;;;;;;34.05;19.52;;;;;;;1.63;100.00;99592.19;5118197;27;20112;-69
2021/12/10 00:23:45;;;;;;;36.38;20.70;;;;;;;1.62;100.00;99586.09;5125035;27;20051;-68
2021/12/10 00:26:10;;;;;;;38.67;19.55;;;;;;;1.67;100.00;99586.19;5121914;27;20039;-68
2021/12/10 00:28:39;;;;;;;37.33;19.38;;;;;;;1.67;100.00;99583.56;5124147;27;20035;-69
2021/12/10 00:31:19;;;;;;;35.78;18.95;;;;;;;1.67;100.00;99568.81;5122904;27;20543;-68
2021/12/10 00:33:56;;;;;;;33.50;19.92;;;;;;;1.68;100.00;99561.91;5118423;27;20031;-68
2021/12/10 00:36:22;;;;;;;36.53;20.08;;;;;;;1.63;100.00;99561.81;5119241;27;20035;-69
2021/12/10 00:38:48;;;;;;;32.92;17.85;;;;;;;1.66;100.00;99571.38;5124984;27;20024;-68
2021/12/10 00:41:14;;;;;;;35.38;19.17;;;;;;;1.62;100.00;99540.94;5122171;27;20382;-68
2021/12/10 00:43:40;;;;;;;31.55;16.40;;;;;;;1.59;100.00;99539.16;5124675;27;20015;-67
2021/12/10 00:46:06;;;;;;;33.95;17.83;;;;;;;1.45;100.00;99533.66;5122550;27;20023;-68
2021/12/10 00:48:33;;;;;;;33.35;16.52;;;;;;;1.36;100.00;99521.31;5123801;27;20081;-68
2021/12/10 00:50:59;;;;;;;35.30;16.73;;;;;;;1.33;100.00;99526.47;5123465;27;20043;-68
2021/12/10 00:53:25;;;;;;;31.73;16.38;;;;;;;1.33;100.00;99517.78;5122400;27;20032;-68
2021/12/10 00:55:51;;;;;;;31.02;14.75;;;;;;;1.33;100.00;99509.97;5124954;28;20026;-67
2021/12/10 00:58:17;;;;;;;32.08;14.95;;;;;;;1.27;100.00;99502.00;5121656;28;20024;-68
2021/12/10 01:00:56;;;;;;;31.58;14.85;;;;;;;1.28;100.00;99495.97;5124828;28;20030;-68
2021/12/10 01:03:25;;;;;;;30.45;13.88;;;;;;;1.25;100.00;99490.69;5119230;28;20098;-68
2021/12/10 01:05:55;;;;;;;29.90;14.27;;;;;;;1.27;100.00;99476.88;5124854;28;20114;-68
2021/12/10 01:08:21;;;;;;;32.50;13.35;;;;;;;1.28;100.00;99476.03;5122083;28;20032;-68
2021/12/10 01:10:59;;;;;;;28.10;12.95;;;;;;;1.28;100.00;99470.81;5125166;28;20152;-69
2021/12/10 01:13:30;;;;;;;29.08;13.55;;;;;;;1.29;100.00;99466.47;5120321;28;20031;-69
2021/12/10 01:27:32;;;;;;;31.27;14.35;;;;;;;1.23;100.00;99420.38;5046457;28;20075;-68
2021/12/10 01:30:20;;;;;;;28.65;13.43;;;;;;;1.25;100.00;99412.59;5054843;28;20045;-70
2021/12/10 01:32:52;;;;;;;28.58;13.80;;;;;;;1.26;100.00;99404.81;5052731;28;20045;-68
2021/12/10 01:35:21;;;;;;;28.67;12.82;;;;;;;1.23;100.00;99399.53;5070212;28;20045;-68
2021/12/10 01:37:48;;;;;;;29.75;13.85;;;;;;;1.25;100.00;99396.97;5067282;28;20033;-69
2021/12/10 01:40:14;;;;;;;27.80;12.70;;;;;;;1.20;100.00;99383.88;5067169;28;20142;-70
2021/12/10 01:42:47;;;;;;;28.85;12.75;;;;;;;1.19;100.00;99376.91;5075071;28;20065;-69
2021/12/10 01:45:22;;;;;;;29.48;12.50;;;;;;;1.19;100.00;99376.91;5074094;28;20005;-68
2021/12/10 01:48:06;;;;;;;27.42;12.00;;;;;;;1.16;100.00;99377.72;5070940;28;20027;-69
2021/12/10 01:50:34;;;;;;;29.30;12.23;;;;;;;1.12;100.00;99382.84;5059865;28;20151;-71
2021/12/10 01:53:05;;;;;;;26.90;11.88;;;;;;;1.10;100.00;99372.41;5053553;28;20152;-71
2021/12/10 01:55:33;;;;;;;25.77;12.07;;;;;;;1.12;100.00;99373.31;5080809;27;20081;-71
2021/12/10 01:57:59;;;;;;;27.80;12.00;;;;;;;1.11;100.00;99368.94;5126439;27;20024;-73
2021/12/10 02:00:30;;;;;;;27.52;11.98;;;;;;;1.10;100.00;99361.13;5127270;27;20034;-73
2021/12/10 02:02:56;;;;;;;27.05;11.70;;;;;;;1.11;100.00;99363.75;5125986;27;20024;-70
2021/12/10 02:05:22;;;;;;;28.75;11.90;;;;;;;1.12;100.00;99352.50;5127636;27;20129;-71
2021/12/10 02:07:48;;;;;;;27.60;12.30;;;;;;;1.12;100.00;99354.19;5124567;27;20039;-71
2021/12/10 02:10:17;;;;;;;28.02;12.23;;;;;;;1.10;100.00;99348.09;5120495;27;20020;-70
2021/12/10 02:12:42;;;;;;;32.90;12.57;;;;;;;1.03;100.00;99337.59;5128090;27;20027;-72
2021/12/10 02:15:11;;;;;;;28.73;12.60;;;;;;;1.00;100.00;99334.03;5124946;27;20066;-74
2021/12/10 02:17:40;;;;;;;27.83;11.85;;;;;;;1.02;100.00;99332.31;5126930;27;20023;-70
2021/12/10 02:20:13;;;;;;;30.65;11.57;;;;;;;1.00;100.00;99321.88;5125410;27;20488;-72
2021/12/10 02:22:39;;;;;;;28.73;11.60;;;;;;;1.00;100.00;99313.22;5127123;27;20047;-69
2021/12/10 02:25:06;;;;;;;27.23;10.45;;;;;;;0.99;100.00;99314.06;5125480;27;20019;-69
2021/12/10 02:27:32;;;;;;;24.98;9.75;;;;;;;0.98;100.00;99300.16;5126168;27;20035;-70
2021/12/10 02:29:58;;;;;;;25.30;9.13;;;;;;;1.03;100.00;99295.03;5126142;27;20392;-74
2021/12/10 02:32:25;;;;;;;25.60;9.10;;;;;;;1.07;100.00;99282.97;5124718;27;20140;-72
2021/12/10 02:34:52;;;;;;;24.92;8.95;;;;;;;1.07;100.00;99282.97;5127771;27;20068;-73
2021/12/10 02:37:18;;;;;;;25.10;8.30;;;;;;;1.12;100.00;99274.41;5124195;27;20100;-75
2021/12/10 02:39:43;;;;;;;23.98;8.38;;;;;;;1.13;100.00;99283.06;5127001;27;20470;-73
2021/12/10 02:42:09;;;;;;;24.00;8.07;;;;;;;1.14;100.00;99269.22;5124793;27;20028;-70
2021/12/10 02:44:34;;;;;;;23.38;8.50;;;;;;;1.17;100.00;99258.84;5125898;27;20026;-73
2021/12/10 02:47:00;;;;;;;24.05;8.23;;;;;;;1.19;100.00;99267.56;5125795;27;20031;-72
2021/12/10 02:49:27;;;;;;;24.75;7.93;;;;;;;1.20;100.00;99258.91;5125200;27;20106;-72
2021/12/10 02:51:53;;;;;;;23.10;7.47;;;;;;;1.19;100.00;99244.13;5126953;27;20023;-74
2021/12/10 02:54:23;;;;;;;23.52;7.30;;;;;;;1.21;100.00;99251.13;5123851;27;20027;-75
2021/12/10 02:56:50;;;;;;;22.95;7.88;;;;;;;1.20;100.00;99246.75;5120158;27;20027;-71
2021/12/10 02:59:17;;;;;;;23.73;7.85;;;;;;;1.20;100.00;99246.75;5119825;27;20498;-74
2021/12/10 03:01:49;;;;;;;24.05;6.90;;;;;;;1.20;100.00;99238.94;5126794;27;20027;-74
2021/12/10 03:04:15;;;;;;;;;;;;;;;1.16;100.00;99231.94;5120146;27;20027;-72
2021/12/10 03:06:45;;;;;;;25.23;7.20;;;;;;;1.23;100.00;99225.09;5108269;27;19911;-71
2021/12/10 03:09:12;;;;;;;23.20;6.80;;;;;;;1.24;100.00;99213.84;5123740;27;20099;-70
2021/12/10 03:11:39;;;;;;;23.42;6.75;;;;;;;1.27;100.00;99218.22;5126426;27;20122;-69
2021/12/10 03:14:09;;;;;;;24.50;7.28;;;;;;;1.29;100.00;99214.78;5124688;27;20060;-74
2021/12/10 03:16:36;;;;;;;22.25;6.70;;;;;;;1.33;100.00;99211.38;5125589;27;20023;-68
2021/12/10 03:19:03;;;;;;;24.67;6.38;;;;;;;1.32;100.00;99200.94;5124987;27;20083;-70
2021/12/10 03:21:28;;;;;;;21.58;6.70;;;;;;;1.33;100.00;99195.75;5124396;27;20493;-68
2021/12/10 03:23:54;;;;;;;22.08;6.10;;;;;;;1.32;100.00;99195.75;5125935;27;20027;-70
2021/12/10 03:26:21;;;;;;;21.02;6.38;;;;;;;1.28;100.00;99197.44;5123107;27;20046;-69
2021/12/10 03:28:50;;;;;;;23.85;6.82;;;;;;;1.27;100.00;99187.84;5126004;27;20163;-69
2021/12/10 03:31:17;;;;;;;22.00;6.90;;;;;;;1.25;100.00;99194.75;5118795;27;20035;-72
2021/12/10 03:33:43;;;;;;;23.67;7.45;;;;;;;1.25;100.00;99183.47;5126365;27;20485;-72
2021/12/10 03:36:09;;;;;;;22.67;7.13;;;;;;;1.24;100.00;99181.72;5123438;27;20139;-70
2021/12/10 03:38:37;;;;;;;24.58;7.88;;;;;;;1.24;100.00;99176.50;5124851;27;20027;-73
2021/12/10 03:41:03;;;;;;;22.08;7.10;;;;;;;1.25;100.00;99162.66;5124589;27;20470;-71
2021/12/10 03:43:28;;;;;;;23.20;7.72;;;;;;;1.30;100.00;99166.22;5123733;27;20049;-68
2021/12/10 03:45:56;;;;;;;24.38;7.20;;;;;;;1.27;100.00;99172.25;5125694;27;20445;-68
2021/12/10 03:48:25;;;;;;;23.73;6.78;;;;;;;1.31;100.00;99163.63;5123147;27;20027;-73
2021/12/10 03:50:55;;;;;;;22.75;6.88;;;;;;;1.33;100.00;99164.50;5125357;27;20024;-71
2021/12/10 03:53:21;;;;;;;24.13;7.40;;;;;;;1.36;100.00;99156.75;5122521;27;20134;-69
2021/12/10 03:55:48;;;;;;;20.95;6.90;;;;;;;1.37;100.00;99157.63;5125931;27;20102;-71
2021/12/10 03:58:15;;;;;;;25.17;7.28;;;;;;;1.42;100.00;99155.09;5122577;27;20163;-68
2021/12/10 04:00:45;;;;;;;23.75;7.35;;;;;;;1.50;100.00;99143.03;5125224;27;20079;-70
2021/12/10 04:03:12;;;;;;;23.88;7.68;;;;;;;1.45;100.00;99140.38;5122703;27;20079;-73
2021/12/10 04:05:38;;;;;;;22.00;7.30;;;;;;;1.44;100.00;99137.75;5125222;27;20032;-71
2021/12/10 04:08:04;;;;;;;22.35;7.07;;;;;;;1.46;100.00;99131.72;5123838;27;20027;-70
2021/12/10 04:10:29;;;;;;;23.05;7.18;;;;;;;1.47;100.00;99124.75;5123548;27;20072;-72
2021/12/10 04:12:55;;;;;;;24.13;7.20;;;;;;;1.47;100.00;99124.75;5124922;27;20378;-70
2021/12/10 04:15:23;;;;;;;24.83;7.20;;;;;;;1.47;100.00;99109.13;5122258;27;20055;-72
2021/12/10 04:17:52;;;;;;;22.40;7.10;;;;;;;1.52;100.00;99102.28;5125365;27;20493;-70
2021/12/10 04:20:19;;;;;;;23.55;7.20;;;;;;;1.47;100.00;99107.44;5118256;27;20051;-70
2021/12/10 04:22:46;;;;;;;22.60;6.95;;;;;;;1.43;100.00;99104.75;5125999;27;20023;-72
2021/12/10 04:25:15;;;;;;;24.02;7.55;;;;;;;1.40;100.00;99089.97;5122589;27;20058;-70
2021/12/10 04:27:41;;;;;;;21.88;7.03;;;;;;;1.42;100.00;99092.59;5124529;27;20043;-72
2021/12/10 04:30:10;;;;;;;23.58;7.18;;;;;;;1.43;100.00;99081.31;5122921;27;20034;-69
2021/12/10 04:32:36;;;;;;;22.50;6.82;;;;;;;1.43;100.00;99070.88;5124064;27;20394;-69
2021/12/10 04:35:02;;;;;;;23.27;7.45;;;;;;;1.46;100.00;99063.13;5124195;27;20023;-75
2021/12/10 04:37:27;;;;;;;22.67;6.32;;;;;;;1.49;100.00;99064.03;5123343;27;20038;-71
2021/12/10 04:39:53;;;;;;;25.52;6.85;;;;;;;1.49;100.00;99058.81;5125287;27;20023;-69
2021/12/10 04:42:23;;;;;;;22.75;6.50;;;;;;;1.54;100.00;99045.84;5121763;27;20024;-68
2021/12/10 04:44:52;;;;;;;22.73;5.85;;;;;;;1.60;100.00;99045.91;5117815;27;20016;-70
2021/12/10 04:47:18;;;;;;;20.25;5.72;;;;;;;1.65;100.00;99035.59;5117886;27;20467;-71
2021/12/10 04:49:43;;;;;;;22.40;5.78;;;;;;;1.61;100.00;99031.19;5124915;27;20019;-69
2021/12/10 04:52:08;;;;;;;22.33;5.90;;;;;;;1.64;100.00;99026.00;5086526;28;20035;-69
2021/12/10 04:54:35;;;;;;;20.48;5.70;;;;;;;1.66;100.00;99025.19;5123670;27;20118;-69
2021/12/10 04:57:00;;;;;;;20.02;5.03;;;;;;;1.65;100.00;99022.56;5123471;28;20465;-69
2021/12/10 04:59:29;;;;;;;20.52;5.40;;;;;;;1.63;100.00;99009.53;5122293;28;20088;-69
2021/12/10 05:01:57;;;;;;;22.42;4.93;;;;;;;1.68;100.00;99007.81;5124215;28;20458;-68
2021/12/10 05:04:24;;;;;;;21.08;5.13;;;;;;;1.76;100.00;99007.03;5126097;27;20042;-69
2021/12/10 05:06:52;;;;;;;22.83;5.30;;;;;;;1.75;100.00;99006.16;5129659;27;20034;-68
2021/12/10 05:09:20;;;;;;;19.70;5.13;;;;;;;1.82;100.00;98999.28;5122542;27;20044;-68
2021/12/10 05:11:45;;;;;;;20.60;5.30;;;;;;;1.88;100.00;98994.16;5130036;27;20023;-69
2021/12/10 05:14:11;;;;;;;21.45;5.78;;;;;;;1.85;100.00;98981.06;5126693;27;20420;-69
2021/12/10 05:16:43;;;;;;;21.40;5.95;;;;;;;1.87;100.00;98985.44;5128603;27;20031;-68
2021/12/10 05:19:09;;;;;;;21.83;6.32;;;;;;;1.82;100.00;98978.44;5126993;27;20023;-68
2021/12/10 05:21:37;;;;;;;21.33;6.50;;;;;;;1.79;100.00;98986.22;5127490;27;20023;-68
2021/12/10 05:24:04;;;;;;;23.02;7.03;;;;;;;1.75;100.00;98990.53;5127450;27;20051;-70
2021/12/10 05:26:30;;;;;;;23.17;6.90;;;;;;;1.77;100.00;98975.78;5126523;27;20023;-70
2021/12/10 05:28:56;;;;;;;23.10;6.93;;;;;;;1.74;100.00;98978.34;5128076;27;20396;-69
2021/12/10 05:31:22;;;;;;;24.08;6.65;;;;;;;1.80;100.00;98978.41;5125397;27;20080;-69
2021/12/10 05:33:47;;;;;;;23.25;7.30;;;;;;;1.79;100.00;98970.56;5110024;27;20443;-69
2021/12/10 05:36:13;;;;;;;20.90;6.55;;;;;;;1.78;100.00;98967.13;5125418;27;20047;-69
2021/12/10 05:38:38;;;;;;;21.05;6.07;;;;;;;1.78;100.00;98967.13;5127533;27;20466;-69
2021/12/10 05:41:06;;;;;;;23.23;6.20;;;;;;;1.78;100.00;98964.50;5126822;27;20474;-68
2021/12/10 05:43:33;;;;;;;23.58;6.30;;;;;;;1.86;100.00;98952.41;5126757;27;20030;-69
2021/12/10 05:45:58;;;;;;;21.20;5.88;;;;;;;1.84;100.00;98951.53;5127427;27;20023;-69
2021/12/10 05:48:24;;;;;;;20.98;5.75;;;;;;;1.93;100.00;98950.75;5125639;27;20053;-68
2021/12/10 05:50:49;;;;;;;21.25;5.85;;;;;;;1.91;100.00;98947.25;5128345;27;20034;-69
2021/12/10 05:53:15;;;;;;;23.15;5.60;;;;;;;1.99;100.00;98937.75;5125201;27;20081;-69
2021/12/10 05:55:42;;;;;;;20.88;5.57;;;;;;;2.02;100.00;98940.38;5127629;27;20122;-68
2021/12/10 05:58:08;;;;;;;21.45;5.88;;;;;;;1.98;100.00;98945.56;5125635;27;20286;-74
2021/12/10 06:00:39;;;;;;;21.25;5.47;;;;;;;1.98;100.00;98941.25;5126462;27;20026;-73
2021/12/10 06:03:05;;;;;;;22.00;5.45;;;;;;;1.97;100.00;98947.31;5126326;27;20027;-76
2021/12/10 06:05:33;;;;;;;21.17;5.13;;;;;;;2.00;100.00;98957.75;5126062;27;20076;-75
2021/12/10 06:07:58;;;;;;;21.30;5.35;;;;;;;1.99;100.00;98949.94;5126974;27;20117;-74
2021/12/10 06:10:24;;;;;;;22.60;5.25;;;;;;;2.01;100.00;98946.47;5124949;27;20106;-75
2021/12/10 06:12:51;;;;;;;21.45;4.97;;;;;;;2.01;100.00;98946.47;5128154;27;20374;-73
2021/12/10 06:15:20;;;;;;;20.65;4.97;;;;;;;2.01;100.00;98937.75;5119190;27;20347;-76
2021/12/10 06:17:46;;;;;;;21.27;5.32;;;;;;;2.00;100.00;98939.50;5128397;27;20105;-72
2021/12/10 06:20:16;;;;;;;21.90;5.45;;;;;;;2.02;100.00;98937.78;5126204;27;20110;-73
2021/12/10 06:22:42;;;;;;;21.77;5.10;;;;;;;2.01;100.00;98938.66;5127328;27;20034;-73
2021/12/10 06:25:08;;;;;;;20.45;4.90;;;;;;;1.99;100.00;98940.38;5125778;27;20027;-76
2021/12/10 06:27:34;;;;;;;19.63;5.10;;;;;;;2.01;100.00;98936.06;5123259;27;20040;-77
2021/12/10 06:30:01;;;;;;;21.73;5.20;;;;;;;2.01;100.00;98923.03;5120818;27;20449;-74
2021/12/10 06:32:27;;;;;;;20.20;5.05;;;;;;;2.00;100.00;98930.84;5117389;27;20497;-72
2021/12/10 06:34:52;;;;;;;23.73;5.20;;;;;;;1.98;100.00;98929.94;5120952;27;20027;-74
2021/12/10 06:37:18;;;;;;;22.17;5.60;;;;;;;1.97;100.00;98936.88;5116831;27;20126;-72
2021/12/10 06:39:44;;;;;;;20.77;4.88;;;;;;;1.98;100.00;98927.31;5118614;27;20028;-75
2021/12/10 06:42:09;;;;;;;20.05;4.93;;;;;;;1.98;100.00;98923.00;5121505;27;20533;-68
2021/12/10 06:44:35;;;;;;;21.50;5.05;;;;;;;1.95;100.00;98929.91;5118113;27;20098;-72
2021/12/10 06:47:05;;;;;;;21.60;5.18;;;;;;;1.98;100.00;98923.00;5119453;27;20157;-74
2021/12/10 06:49:31;;;;;;;20.92;4.75;;;;;;;2.01;100.00;98928.22;5118237;27;20039;-76
2021/12/10 06:51:57;;;;;;;21.50;4.70;;;;;;;2.03;100.00;98936.06;5118520;27;20120;-78
2021/12/10 06:54:22;;;;;;;21.67;5.00;;;;;;;2.02;100.00;98935.16;5119979;27;20531;-72
2021/12/10 06:56:47;;;;;;;22.02;4.85;;;;;;;2.02;100.00;98934.31;5119405;27;20027;-75
2021/12/10 06:59:13;;;;;;;22.13;4.97;;;;;;;2.01;100.00;98937.75;5117437;27;20485;-77
2021/12/10 07:01:40;;;;;;;20.52;4.85;;;;;;;2.03;100.00;98946.50;5117711;27;20031;-73
2021/12/10 07:04:10;;;;;;;21.10;4.72;;;;;;;2.04;100.00;98943.00;5113473;27;20352;-73
2021/12/10 07:06:36;;;;;;;23.25;4.65;;;;;;;2.06;100.00;98946.50;5101501;27;20432;-70
2021/12/10 07:09:05;;;;;;;22.15;4.90;;;;;;;2.06;100.00;98936.09;5120886;27;20031;-71
2021/12/10 07:11:30;;;;;;;20.08;4.78;;;;;;;2.05;100.00;98945.66;5119085;27;20186;-71
2021/12/10 07:13:57;;;;;;;23.10;4.82;;;;;;;2.04;100.00;98943.91;5099580;27;20055;-69
2021/12/10 07:16:25;;;;;;;22.27;4.78;;;;;;;2.02;100.00;98942.13;5115556;27;20028;-70
2021/12/10 07:18:53;;;;;;;24.10;4.88;;;;;;;1.97;100.00;98939.50;5102207;27;20057;-69
2021/12/10 07:21:19;;;;;;;19.55;4.80;;;;;;;1.99;100.00;98940.38;5101657;27;20027;-70
2021/12/10 07:23:45;;;;;;;21.77;4.85;;;;;;;1.98;100.00;98928.22;5120414;27;20102;-70
2021/12/10 07:26:12;;;;;;;22.45;4.82;;;;;;;2.00;100.00;98930.84;5119992;27;20031;-70
2021/12/10 07:28:39;;;;;;;21.58;5.00;;;;;;;2.02;100.00;98934.31;5117948;27;20135;-68
2021/12/10 07:31:04;;;;;;;20.63;4.72;;;;;;;2.01;100.00;98928.22;5117494;27;20031;-68
2021/12/10 07:33:30;;;;;;;22.65;4.57;;;;;;;2.01;100.00;98938.66;5116935;27;20501;-68
2021/12/10 07:35:55;;;;;;;22.20;4.80;;;;;;;2.03;100.00;98934.31;5117097;27;20023;-68
2021/12/10 07:38:21;;;;;;;18.30;4.40;;;;;;;2.02;100.00;98927.34;5117852;27;20111;-69
2021/12/10 07:40:47;;;;;;;22.30;4.70;;;;;;;2.03;100.00;98926.50;5117969;27;20111;-68
2021/12/10 07:43:13;;;;;;;20.40;4.45;;;;;;;2.09;100.00;98926.53;5113619;27;20027;-68
2021/12/10 07:45:40;;;;;;;21.67;4.60;;;;;;;2.04;100.00;98928.25;5117365;27;20036;-68
2021/12/10 07:48:09;;;;;;;21.77;4.32;;;;;;;2.11;100.00;98928.28;5122869;27;20110;-67
2021/12/10 07:50:40;;;;;;;20.10;4.30;;;;;;;2.10;100.00;98932.66;5118848;27;20063;-67
2021/12/10 07:53:06;;;;;;;21.70;4.88;;;;;;;2.08;100.00;98924.81;5115390;27;20027;-66
2021/12/10 07:55:34;;;;;;;20.88;4.50;;;;;;;2.09;100.00;98934.38;5115659;27;20030;-66
2021/12/10 07:58:02;;;;;;;19.52;4.20;;;;;;;2.11;100.00;98929.16;5099825;28;20058;-66
2021/12/10 08:00:30;;;;;;;22.05;4.68;;;;;;;2.15;100.00;98940.50;5117295;27;20027;-67
2021/12/10 08:02:56;;;;;;;21.52;4.50;;;;;;;2.17;100.00;98933.56;5118133;27;20085;-67
2021/12/10 08:05:22;;;;;;;20.75;4.53;;;;;;;2.17;100.00;98944.88;5116801;27;20413;-66
2021/12/10 08:07:49;;;;;;;20.73;4.95;;;;;;;2.17;100.00;98943.97;5118499;27;20026;-66
2021/12/10 08:10:16;;;;;;;22.52;4.75;;;;;;;2.16;100.00;98934.44;5116434;27;20062;-67
2021/12/10 08:12:42;;;;;;;22.00;4.55;;;;;;;2.16;100.00;98937.91;5115166;27;20747;-66
2021/12/10 08:15:09;;;;;;;22.45;4.82;;;;;;;2.15;100.00;98933.53;5114350;27;20072;-67
2021/12/10 08:17:35;;;;;;;22.65;4.90;;;;;;;2.17;100.00;98930.94;5114736;27;20035;-68
2021/12/10 08:20:01;;;;;;;21.15;5.00;;;;;;;2.22;100.00;98934.47;5117305;27;20028;-68
2021/12/10 08:22:26;;;;;;;21.52;4.90;;;;;;;2.23;100.00;98937.09;5117343;27;20027;-66
2021/12/10 08:24:52;;;;;;;24.42;5.55;;;;;;;2.29;100.00;98932.75;5121419;27;20037;-68
2021/12/10 08:27:17;;;;;;;21.95;5.05;;;;;;;2.33;100.00;98945.88;5118800;27;20027;-67
2021/12/10 08:29:44;;;;;;;23.67;4.70;;;;;;;2.34;100.00;98936.28;5112895;27;20138;-67
2021/12/10 08:32:14;;;;;;;22.98;5.00;;;;;;;2.36;100.00;98940.66;5113150;27;20032;-69
2021/12/10 08:34:39;;;;;;;21.95;5.18;;;;;;;2.40;100.00;98941.53;5111391;27;20035;-67
2021/12/10 08:37:05;;;;;;;19.73;4.82;;;;;;;2.44;100.00;98933.75;5112143;28;20454;-69
2021/12/10 08:39:31;;;;;;;20.50;5.10;;;;;;;2.47;100.00;98935.50;5113572;27;20026;-69
2021/12/10 08:41:58;;;;;;;21.10;5.18;;;;;;;2.49;100.00;98938.13;5116950;27;20036;-68
2021/12/10 08:44:25;;;;;;;21.92;4.80;;;;;;;2.50;100.00;98947.72;5115442;27;20478;-70
2021/12/10 08:46:52;;;;;;;22.13;5.53;;;;;;;2.52;100.00;98946.88;5118609;27;20027;-71
2021/12/10 08:49:17;;;;;;;21.63;4.75;;;;;;;2.49;100.00;98945.94;5117796;28;20398;-72
2021/12/10 08:51:47;;;;;;;21.27;4.88;;;;;;;2.50;100.00;98940.75;5116168;27;20034;-67
2021/12/10 08:54:14;;;;;;;22.35;5.25;;;;;;;2.51;100.00;98945.09;5114804;27;20108;-67
2021/12/10 08:56:40;;;;;;;21.45;5.28;;;;;;;2.55;100.00;98935.56;5113846;27;20024;-67
2021/12/10 08:59:08;;;;;;;21.80;5.30;;;;;;;2.56;100.00;98932.09;5116453;28;20027;-67
2021/12/10 09:01:38;;;;;;;20.52;5.22;;;;;;;2.59;100.00;98945.16;5116241;28;20581;-67
2021/12/10 09:04:07;;;;;;;20.85;5.40;;;;;;;2.61;100.00;98933.00;5110787;28;20078;-67
2021/12/10 09:06:37;;;;;;;21.27;5.60;;;;;;;2.65;100.00;98929.56;5117543;28;20390;-67
2021/12/10 09:09:05;;;;;;;20.98;5.47;;;;;;;2.68;100.00;98932.19;5117106;28;20051;-67
2021/12/10 09:11:31;;;;;;;20.70;5.30;;;;;;;2.68;100.00;98944.34;5116766;28;20080;-68
2021/12/10 09:13:56;;;;;;;21.58;5.78;;;;;;;2.74;100.00;98947.88;5123839;28;20051;-67
2021/12/10 09:16:26;;;;;;;21.90;5.28;;;;;;;2.75;100.00;98948.72;5103808;28;20062;-67
2021/12/10 09:18:57;;;;;;;22.10;5.55;;;;;;;2.80;100.00;98947.03;5123870;28;20023;-66
2021/12/10 09:21:22;;;;;;;22.52;5.60;;;;;;;2.83;100.00;98946.19;5110428;28;20039;-67
2021/12/10 09:23:48;;;;;;;20.40;5.63;;;;;;;2.85;100.00;98949.66;5117977;28;20024;-67
2021/12/10 09:26:17;;;;;;;23.52;6.30;;;;;;;2.90;100.00;98947.97;5114454;28;20028;-69
2021/12/10 09:28:45;;;;;;;23.63;6.30;;;;;;;2.89;100.00;98959.25;5113889;28;20038;-68
2021/12/10 09:31:11;;;;;;;23.02;5.82;;;;;;;2.93;100.00;98954.06;5114402;28;20471;-65
2021/12/10 09:33:36;;;;;;;22.00;6.32;;;;;;;2.94;100.00;98953.19;5116556;28;20107;-68
2021/12/10 09:36:02;;;;;;;21.75;6.55;;;;;;;2.95;100.00;98956.66;5115231;28;20069;-66
2021/12/10 09:38:29;;;;;;;21.88;6.40;;;;;;;2.98;100.00;98961.91;5116391;28;20030;-71
2021/12/10 09:41:02;;;;;;;21.83;6.78;;;;;;;3.01;99.95;98961.91;5119965;28;20042;-68
2021/12/10 09:43:28;;;;;;;21.67;6.32;;;;;;;3.02;100.00;98955.84;5114192;28;20059;-69
2021/12/10 09:45:54;;;;;;;22.17;6.47;;;;;;;3.08;99.80;98957.59;5115057;28;20856;-70
2021/12/10 09:48:21;;;;;;;22.73;6.30;;;;;;;3.00;100.00;98954.97;5115177;28;20402;-69
2021/12/10 09:50:54;;;;;;;21.63;6.47;;;;;;;3.06;99.62;98960.22;5117296;27;20110;-69
2021/12/10 09:53:20;;;;;;;23.38;6.57;;;;;;;3.01;99.58;98961.91;5118913;27;20370;-68
2021/12/10 09:55:47;;;;;;;22.25;6.60;;;;;;;3.06;100.00;98960.22;5119696;27;20019;-70
2021/12/10 09:58:14;;;;;;;21.35;6.38;;;;;;;3.06;99.41;98956.72;5119687;27;20114;-69
2021/12/10 10:00:44;;;;;;;22.52;6.60;;;;;;;3.08;98.88;98961.06;5118242;27;20359;-69
2021/12/10 10:03:13;;;;;;;21.48;6.53;;;;;;;3.08;99.21;98958.47;5115051;27;20471;-68
2021/12/10 10:05:41;;;;;;;22.30;6.60;;;;;;;3.11;99.20;98961.09;5118610;27;20562;-71
2021/12/10 10:08:10;;;;;;;21.80;6.70;;;;;;;3.13;99.47;98964.59;5118533;27;20055;-69
2021/12/10 10:10:40;;;;;;;21.90;6.25;;;;;;;3.19;98.88;98966.38;5114908;27;20454;-70
2021/12/10 10:13:10;;;;;;;22.15;6.60;;;;;;;3.17;97.55;98972.44;5116471;27;20023;-71
2021/12/10 10:15:40;;;;;;;19.52;6.22;;;;;;;3.18;98.91;98974.19;5113722;27;20027;-72
2021/12/10 10:18:07;;;;;;;21.02;6.40;;;;;;;3.20;98.61;98967.22;5117501;27;20031;-69
2021/12/10 10:20:37;;;;;;;21.30;6.32;;;;;;;3.24;97.80;98964.63;5111573;28;20024;-69
2021/12/10 10:23:04;;;;;;;20.15;6.15;;;;;;;3.28;96.14;98961.16;5116584;27;20016;-69
2021/12/10 10:25:31;;;;;;;20.80;5.65;;;;;;;3.28;96.83;98958.56;5119228;27;20098;-68
2021/12/10 10:27:58;;;;;;;21.00;6.25;;;;;;;3.31;96.82;98970.75;5116749;27;20031;-68
2021/12/10 10:30:37;;;;;;;22.70;6.20;;;;;;;3.35;96.34;98976.84;5115171;27;20047;-69
2021/12/10 10:33:07;;;;;;;21.95;6.53;;;;;;;3.40;96.28;98973.41;5112108;28;20091;-68
2021/12/10 10:35:41;;;;;;;19.65;5.80;;;;;;;3.42;95.87;98979.53;5111530;27;20084;-69
2021/12/10 10:38:08;;;;;;;21.23;6.15;;;;;;;3.46;95.80;98973.41;5111472;28;20027;-69
2021/12/10 10:40:37;;;;;;;21.27;5.85;;;;;;;3.47;93.52;98976.91;5112173;28;20015;-69
2021/12/10 10:43:03;;;;;;;21.65;6.00;;;;;;;3.52;93.77;98971.69;5118419;27;20023;-68
2021/12/10 10:45:42;;;;;;;19.33;5.82;;;;;;;3.58;93.73;98969.09;5112864;27;20035;-68
2021/12/10 10:48:09;;;;;;;21.65;6.07;;;;;;;3.51;93.19;98972.56;5110865;28;20467;-68
2021/12/10 10:50:39;;;;;;;21.10;5.90;;;;;;;3.54;94.07;98975.19;5112162;28;20024;-69
2021/12/10 10:53:13;;;;;;;21.25;5.93;;;;;;;3.61;93.54;98969.09;5100171;27;20024;-67
2021/12/10 10:55:48;;;;;;;20.75;6.00;;;;;;;3.60;93.46;98978.69;5115133;27;20028;-67
2021/12/10 10:58:15;;;;;;;20.48;6.18;;;;;;;3.58;92.42;98974.31;5122164;27;20038;-67
2021/12/10 11:00:59;;;;;;;21.30;5.80;;;;;;;3.61;93.13;98970.00;5118995;27;20374;-70
2021/12/10 11:03:36;;;;;;;20.58;6.13;;;;;;;3.59;93.41;98978.69;5121984;27;20479;-68
2021/12/10 11:06:04;;;;;;;22.52;6.20;;;;;;;3.54;93.09;98981.28;5117829;27;20032;-69
2021/12/10 11:08:35;;;;;;;23.38;6.07;;;;;;;3.61;93.66;98987.41;5120973;27;20027;-69
2021/12/10 11:11:06;;;;;;;20.63;6.50;;;;;;;3.62;94.50;98981.31;5117870;27;20481;-69
2021/12/10 11:13:31;;;;;;;21.23;5.90;;;;;;;3.62;92.90;98983.91;5116722;27;20382;-68
2021/12/10 11:16:05;;;;;;;22.40;6.00;;;;;;;3.59;94.25;98991.75;5115791;27;20030;-68
2021/12/10 11:18:57;;;;;;;21.65;5.60;;;;;;;3.63;93.45;98993.50;5120003;27;20458;-69
2021/12/10 11:21:44;;;;;;;22.08;5.63;;;;;;;3.67;94.14;98995.28;5114388;27;20023;-68
2021/12/10 11:24:15;;;;;;;20.38;5.25;;;;;;;3.63;93.18;98985.69;5118540;27;20019;-68
2021/12/10 11:26:45;;;;;;;21.55;5.55;;;;;;;3.62;94.77;98989.16;5123761;27;20164;-68
2021/12/10 11:29:36;;;;;;;19.48;5.30;;;;;;;3.66;93.67;98996.13;5125592;27;20070;-68
2021/12/10 11:32:10;;;;;;;20.08;5.25;;;;;;;3.61;91.72;98995.22;5124054;27;20364;-68
2021/12/10 11:34:50;;;;;;;20.83;5.28;;;;;;;3.60;93.42;98994.38;5124759;27;20018;-68
2021/12/10 11:37:36;;;;;;;21.48;5.57;;;;;;;3.51;93.33;98994.34;5119425;27;20023;-68
2021/12/10 11:40:04;;;;;;;20.08;5.15;;;;;;;3.53;94.03;98996.97;5105208;27;20386;-69